Time;durP1;ratioP1;P1;durP2;ratioP2;P2;SDS_P1;SDS_P2;PMS_P1;PMS_P2;Temp;Humidity;BMP_temperature;BMP_pressure;BME280_temperature;BME280_humidity;BME280_pressure;Samples;Min_cycle;Max_cycle;Signal;HPM_P1;HPM_P2
2022/04/06 00:05:10;;;;;;;4.6;6.3;;;;;;;7.5;73.8;97580;;;;
2022/04/06 00:16:10;;;;;;;3.9;7.8;;;;;;;7.5;73.8;97580;;;;
2022/04/06 00:26:11;;;;;;;3.9;7.8;;;;;;;7.6;73.6;97590;;;;
2022/04/06 00:36:10;;;;;;;3.9;7.8;;;;;;;7.7;73.2;97590;;;;
2022/04/06 00:47:11;;;;;;;3.1;4.7;;;;;;;7.5;73.7;97580;;;;
2022/04/06 00:57:11;;;;;;;3.1;4.7;;;;;;;7.3;74.3;97580;;;;
2022/04/06 01:08:11;;;;;;;3.1;4.7;;;;;;;7.2;74.9;97570;;;;
2022/04/06 01:18:11;;;;;;;4;6.2;;;;;;;7.2;74.7;97570;;;;
2022/04/06 01:29:11;;;;;;;4;6.2;;;;;;;7.2;75.1;97570;;;;
2022/04/06 01:40:11;;;;;;;4;6.2;;;;;;;7.5;74.5;97560;;;;
2022/04/06 02:00:11;;;;;;;3.3;4.8;;;;;;;8;73.4;97570;;;;
2022/04/06 02:11:11;;;;;;;3.3;4.8;;;;;;;8.2;73;97580;;;;
2022/04/06 02:21:10;;;;;;;4.7;7.8;;;;;;;8.2;73.2;97590;;;;
2022/04/06 02:32:10;;;;;;;4.7;7.8;;;;;;;8.2;72.8;97580;;;;
2022/04/06 02:42:11;;;;;;;3.9;5.7;;;;;;;8.3;72.8;97580;;;;
2022/04/06 02:53:10;;;;;;;3.9;5.7;;;;;;;8.3;72.9;97570;;;;
2022/04/06 03:03:11;;;;;;;3.9;5.7;;;;;;;8.4;72.8;97580;;;;
2022/04/06 03:14:11;;;;;;;3.4;5.3;;;;;;;8.4;72.9;97590;;;;
2022/04/06 03:25:11;;;;;;;3.4;5.3;;;;;;;8.4;73.1;97590;;;;
2022/04/06 03:36:11;;;;;;;3.4;5.3;;;;;;;8.4;73.2;97600;;;;
2022/04/06 03:47:10;;;;;;;3.8;5.2;;;;;;;8.4;73;97600;;;;
2022/04/06 03:58:11;;;;;;;3.8;5.2;;;;;;;8.4;73.2;97610;;;;
2022/04/06 04:09:11;;;;;;;3.8;5.2;;;;;;;8.4;73.2;97620;;;;
2022/04/06 04:20:11;;;;;;;3.4;5.4;;;;;;;8.4;73.1;97630;;;;
2022/04/06 04:30:11;;;;;;;3.4;5.4;;;;;;;8.4;73.2;97620;;;;
2022/04/06 04:41:12;;;;;;;3.4;5.4;;;;;;;8.5;73.1;97630;;;;
2022/04/06 04:51:11;;;;;;;4.1;6.7;;;;;;;8.6;72.9;97630;;;;
2022/04/06 05:01:11;;;;;;;4.1;6.7;;;;;;;8.6;72.9;97650;;;;
2022/04/06 05:12:11;;;;;;;4.2;6.5;;;;;;;8.8;72.6;97650;;;;
2022/04/06 05:23:11;;;;;;;4.2;6.5;;;;;;;9;72.4;97680;;;;
2022/04/06 05:33:11;;;;;;;4.2;6.5;;;;;;;9.1;72;97690;;;;
2022/04/06 05:44:11;;;;;;;4.3;5.7;;;;;;;9.3;71.8;97690;;;;
2022/04/06 05:55:11;;;;;;;4.3;5.7;;;;;;;9.7;71.5;97710;;;;
2022/04/06 06:05:11;;;;;;;4.3;5.7;;;;;;;9.9;70.4;97710;;;;
2022/04/06 06:16:11;;;;;;;5.5;11.1;;;;;;;10.1;70.1;97700;;;;
2022/04/06 06:27:14;;;;;;;5.5;11.1;;;;;;;10.5;69.4;97700;;;;
2022/04/06 06:38:11;;;;;;;5.5;11.1;;;;;;;10.8;68.9;97710;;;;
2022/04/06 06:49:11;;;;;;;4.6;7.5;;;;;;;11.1;67.1;97710;;;;
2022/04/06 06:59:11;;;;;;;4.6;7.5;;;;;;;11.3;66.2;97720;;;;
2022/04/06 07:09:11;;;;;;;4.6;7.5;;;;;;;11.4;66.9;97720;;;;
2022/04/06 07:19:11;;;;;;;3.5;6.4;;;;;;;11.1;66.7;97730;;;;
2022/04/06 07:29:11;;;;;;;3.5;6.4;;;;;;;11.1;67;97740;;;;
2022/04/06 07:39:11;;;;;;;3.5;6.4;;;;;;;10.9;67.6;97740;;;;
2022/04/06 07:50:12;;;;;;;3.1;5.6;;;;;;;11.3;67.1;97740;;;;
2022/04/06 08:01:11;;;;;;;3.1;5.6;;;;;;;11.5;66.7;97750;;;;
2022/04/06 08:11:11;;;;;;;3.2;5.6;;;;;;;11.8;66;97750;;;;
2022/04/06 08:21:11;;;;;;;3.2;5.6;;;;;;;12.2;65;97760;;;;
2022/04/06 08:32:11;;;;;;;3.2;5.6;;;;;;;12.6;64.1;97740;;;;
2022/04/06 08:42:11;;;;;;;3.3;5.9;;;;;;;12.7;63.7;97750;;;;
2022/04/06 08:52:11;;;;;;;3.3;5.9;;;;;;;12.6;64.1;97760;;;;
2022/04/06 09:03:11;;;;;;;3.3;5.9;;;;;;;12.2;65.3;97770;;;;
2022/04/06 09:14:11;;;;;;;3.5;5.4;;;;;;;11.9;66.3;97770;;;;
2022/04/06 09:25:11;;;;;;;3.5;5.4;;;;;;;11.8;66.7;97770;;;;
2022/04/06 09:35:11;;;;;;;3.5;5.4;;;;;;;12.1;66.5;97770;;;;
2022/04/06 09:57:11;;;;;;;2.5;4.5;;;;;;;11.8;68.6;97760;;;;
2022/04/06 10:08:11;;;;;;;2.5;4.5;;;;;;;12.4;66.5;97750;;;;
2022/04/06 10:18:11;;;;;;;2.6;4.2;;;;;;;13;64;97730;;;;
2022/04/06 10:29:11;;;;;;;2.6;4.2;;;;;;;13.7;62.7;97740;;;;
2022/04/06 10:39:11;;;;;;;2.6;4.2;;;;;;;14.3;60.6;97730;;;;
2022/04/06 10:49:13;;;;;;;2.6;5.3;;;;;;;14.3;60.1;97740;;;;
2022/04/06 10:59:11;;;;;;;2.6;5.3;;;;;;;14.3;60.1;97730;;;;
2022/04/06 11:10:12;;;;;;;2.6;5.3;;;;;;;14.2;60.2;97730;;;;
2022/04/06 11:20:11;;;;;;;1.7;4.3;;;;;;;14.3;60.8;97720;;;;
2022/04/06 11:30:12;;;;;;;1.7;4.3;;;;;;;14.6;57.6;97720;;;;
2022/04/06 11:40:11;;;;;;;1.7;4.3;;;;;;;15.3;54.6;97710;;;;
2022/04/06 11:51:11;;;;;;;1.8;4.2;;;;;;;15.8;52.8;97690;;;;
2022/04/06 12:01:11;;;;;;;1.8;4.2;;;;;;;16.4;53;97680;;;;
2022/04/06 12:12:11;;;;;;;1.7;5.3;;;;;;;15.5;52.5;97670;;;;
2022/04/06 12:23:11;;;;;;;1.7;5.3;;;;;;;15.3;52.4;97650;;;;
2022/04/06 12:33:11;;;;;;;1.7;5.3;;;;;;;15.6;52.7;97650;;;;
2022/04/06 12:44:11;;;;;;;1.4;2.9;;;;;;;15.8;52.1;97640;;;;
2022/04/06 12:54:11;;;;;;;1.4;2.9;;;;;;;15.7;52.2;97630;;;;
2022/04/06 13:04:11;;;;;;;1.4;2.9;;;;;;;15.9;52.3;97620;;;;
2022/04/06 13:14:11;;;;;;;1.7;5.7;;;;;;;16.2;52;97600;;;;
2022/04/06 13:24:11;;;;;;;1.7;5.7;;;;;;;15.6;53;97600;;;;
2022/04/06 13:35:11;;;;;;;1.7;5.7;;;;;;;15;54.2;97590;;;;
2022/04/06 13:46:12;;;;;;;1.4;2.9;;;;;;;15.1;54.2;97590;;;;
2022/04/06 13:56:11;;;;;;;1.4;2.9;;;;;;;15.1;54.6;97570;;;;
2022/04/06 14:07:11;;;;;;;1.4;2.9;;;;;;;15.3;54;97550;;;;
2022/04/06 14:18:11;;;;;;;2;3.7;;;;;;;15.8;52.1;97530;;;;
2022/04/06 14:28:12;;;;;;;2;3.7;;;;;;;16.1;52.3;97520;;;;
2022/04/06 14:39:11;;;;;;;2;3.7;;;;;;;16.3;51.1;97520;;;;
2022/04/06 14:49:11;;;;;;;1.9;3.3;;;;;;;16.3;51.5;97510;;;;
2022/04/06 15:00:11;;;;;;;1.9;3.3;;;;;;;15.8;52.1;97500;;;;
2022/04/06 15:11:11;;;;;;;2;4.7;;;;;;;15.7;52.6;97480;;;;
2022/04/06 15:21:11;;;;;;;2;4.7;;;;;;;15.9;53.1;97470;;;;
2022/04/06 15:31:11;;;;;;;2;4.7;;;;;;;15.7;52.3;97460;;;;
2022/04/06 15:42:12;;;;;;;2.3;4.6;;;;;;;15.3;53.4;97460;;;;
2022/04/06 15:52:11;;;;;;;2.3;4.6;;;;;;;15.3;54.2;97450;;;;
2022/04/06 16:02:11;;;;;;;2.3;4.6;;;;;;;15.2;55;97440;;;;
2022/04/06 16:13:11;;;;;;;2.2;4;;;;;;;15;54.6;97430;;;;
2022/04/06 16:23:11;;;;;;;2.2;4;;;;;;;14.9;55.5;97430;;;;
2022/04/06 16:33:13;;;;;;;2.2;4;;;;;;;14.6;55.9;97410;;;;
2022/04/06 16:44:11;;;;;;;2.5;5.8;;;;;;;14.5;56.7;97400;;;;
2022/04/06 16:54:11;;;;;;;2.5;5.8;;;;;;;14.3;57.4;97400;;;;
2022/04/06 17:05:11;;;;;;;2.5;5.8;;;;;;;14.1;57.5;97390;;;;
2022/04/06 17:15:11;;;;;;;3.3;5.6;;;;;;;13.8;58.8;97380;;;;
2022/04/06 17:25:11;;;;;;;3.3;5.6;;;;;;;13.4;59.8;97370;;;;
2022/04/06 17:36:11;;;;;;;3.3;5.6;;;;;;;12.9;60.6;97380;;;;
2022/04/06 17:47:11;;;;;;;7.3;11;;;;;;;12.4;61.5;97370;;;;
2022/04/06 17:57:13;;;;;;;7.3;11;;;;;;;12;62.6;97370;;;;
2022/04/06 18:08:12;;;;;;;7.3;11;;;;;;;11.7;64.5;97380;;;;
2022/04/06 18:18:11;;;;;;;11.1;15.8;;;;;;;11.5;65.9;97380;;;;
2022/04/06 18:28:11;;;;;;;11.1;15.8;;;;;;;11.3;65.3;97380;;;;
2022/04/06 18:38:11;;;;;;;11.1;15.8;;;;;;;11;65.7;97380;;;;
2022/04/06 18:48:11;;;;;;;12.2;16.7;;;;;;;10.8;66.9;97380;;;;
2022/04/06 18:58:13;;;;;;;12.2;16.7;;;;;;;10.6;67.9;97370;;;;
2022/04/06 19:08:11;;;;;;;12.2;16.7;;;;;;;10.3;68;97370;;;;
2022/04/06 19:18:11;;;;;;;15.5;19.6;;;;;;;10;68.6;97380;;;;
2022/04/06 19:29:11;;;;;;;15.5;19.6;;;;;;;9.8;69.5;97380;;;;
2022/04/06 19:40:11;;;;;;;15.5;19.6;;;;;;;9.7;70;97370;;;;
2022/04/06 19:51:11;;;;;;;78.7;99.2;;;;;;;9.8;70.6;97350;;;;
2022/04/06 20:01:11;;;;;;;78.7;99.2;;;;;;;9.8;70.6;97350;;;;
2022/04/06 20:12:11;;;;;;;17.8;28.3;;;;;;;9.6;70.4;97340;;;;
2022/04/06 20:22:11;;;;;;;17.8;28.3;;;;;;;9.4;70.5;97340;;;;
2022/04/06 20:32:11;;;;;;;17.8;28.3;;;;;;;9.3;70.9;97320;;;;
2022/04/06 20:42:13;;;;;;;37.2;54.6;;;;;;;9.2;70.9;97310;;;;
2022/04/06 20:53:11;;;;;;;37.2;54.6;;;;;;;8.8;72;97290;;;;
2022/04/06 21:04:11;;;;;;;37.2;54.6;;;;;;;8.7;72.4;97280;;;;
2022/04/06 21:15:11;;;;;;;13;20;;;;;;;8.5;72.4;97270;;;;
2022/04/06 21:25:12;;;;;;;13;20;;;;;;;8.1;72.7;97270;;;;
2022/04/06 21:35:11;;;;;;;13;20;;;;;;;7.9;73.4;97260;;;;
2022/04/06 21:45:11;;;;;;;12;15.6;;;;;;;7.6;74.8;97250;;;;
2022/04/06 21:56:11;;;;;;;12;15.6;;;;;;;7.5;76.6;97240;;;;
2022/04/06 22:07:11;;;;;;;12;15.6;;;;;;;7.3;76.4;97220;;;;
2022/04/06 22:18:11;;;;;;;28.3;34;;;;;;;7.1;77.4;97220;;;;
2022/04/06 22:29:14;;;;;;;28.3;34;;;;;;;7;76.9;97210;;;;
2022/04/06 22:40:11;;;;;;;12.9;17.9;;;;;;;6.9;77.4;97210;;;;
2022/04/06 22:50:11;;;;;;;12.9;17.9;;;;;;;6.9;76.9;97200;;;;
2022/04/06 23:00:11;;;;;;;12.9;17.9;;;;;;;6.7;77.9;97190;;;;
2022/04/06 23:11:11;;;;;;;10.9;15.9;;;;;;;7;78.3;97170;;;;
2022/04/06 23:21:11;;;;;;;10.9;15.9;;;;;;;7;77.3;97160;;;;
2022/04/06 23:32:11;;;;;;;10.9;15.9;;;;;;;7.2;77.6;97150;;;;
2022/04/06 23:42:11;;;;;;;8.9;12.8;;;;;;;7.5;76.4;97140;;;;
2022/04/06 23:53:11;;;;;;;8.9;12.8;;;;;;;7.6;75.5;97120;;;;
